Time;durP1;ratioP1;P1;durP2;ratioP2;P2;SDS_P1;SDS_P2;PMS_P1;PMS_P2;Temp;Humidity;BMP_temperature;BMP_pressure;BME280_temperature;BME280_humidity;BME280_pressure;Samples;Min_cycle;Max_cycle;Signal;HPM_P1;HPM_P2
2024/01/14 00:01:32;;;;;;;21.30;8.70;;;;;;;-5.98;100.00;99508.10;104848;1259;73489;-56
2024/01/14 00:03:59;;;;;;;19.30;9.10;;;;;;;-5.98;100.00;99507.23;104941;1258;65432;-55
2024/01/14 00:06:27;;;;;;;18.40;8.00;;;;;;;-5.97;100.00;99506.71;105171;1253;72720;-55
2024/01/14 00:08:54;;;;;;;16.40;8.80;;;;;;;-5.99;100.00;99505.13;104830;1254;59890;-57
2024/01/14 00:11:22;;;;;;;16.90;7.10;;;;;;;-5.98;100.00;99500.93;104810;1255;60629;-56
2024/01/14 00:13:49;;;;;;;13.10;5.90;;;;;;;-5.98;100.00;99495.34;104823;1259;73117;-56
2024/01/14 00:16:16;;;;;;;14.70;7.40;;;;;;;-5.97;100.00;99494.14;105119;1257;67218;-56
2024/01/14 00:18:44;;;;;;;16.00;6.70;;;;;;;-5.95;100.00;99493.10;105209;1258;71474;-56
2024/01/14 00:21:11;;;;;;;15.30;7.10;;;;;;;-5.94;100.00;99487.35;105178;1255;59993;-55
2024/01/14 00:23:39;;;;;;;14.40;5.80;;;;;;;-5.92;100.00;99485.98;105016;1260;60736;-56
2024/01/14 00:26:06;;;;;;;19.30;7.40;;;;;;;-5.91;100.00;99480.06;105174;1257;72206;-57
2024/01/14 00:28:34;;;;;;;16.80;7.20;;;;;;;-5.90;100.00;99479.02;105314;1255;67279;-56
2024/01/14 00:31:01;;;;;;;16.30;7.00;;;;;;;-5.89;100.00;99473.11;104873;1257;72935;-56
2024/01/14 00:33:29;;;;;;;18.00;7.10;;;;;;;-5.88;100.00;99467.17;104980;1254;59899;-56
2024/01/14 00:36:01;;;;;;;14.60;6.30;;;;;;;-5.87;100.00;99459.64;105637;1254;60470;-56
2024/01/14 00:38:28;;;;;;;14.50;7.70;;;;;;;-5.86;100.00;99454.03;104945;1255;72900;-55
2024/01/14 00:40:56;;;;;;;19.90;8.80;;;;;;;-5.86;100.00;99453.52;104757;1260;67032;-56
2024/01/14 00:43:23;;;;;;;17.10;8.80;;;;;;;-5.87;100.00;99451.08;104952;1258;71535;-56
2024/01/14 00:45:50;;;;;;;15.80;7.70;;;;;;;-5.87;100.00;99450.38;104878;1259;59695;-56
2024/01/14 00:48:17;;;;;;;19.30;8.70;;;;;;;-5.88;100.00;99452.33;104875;1254;60506;-56
2024/01/14 00:50:45;;;;;;;16.50;7.30;;;;;;;-5.90;100.00;99453.34;105647;1254;72951;-55
2024/01/14 00:53:12;;;;;;;16.40;7.70;;;;;;;-5.93;100.00;99440.71;105188;1260;64642;-57
2024/01/14 00:55:40;;;;;;;12.70;6.60;;;;;;;-5.96;100.00;99434.92;104803;1257;71486;-56
2024/01/14 00:58:07;;;;;;;17.60;7.90;;;;;;;-5.99;100.00;99433.65;104904;1254;60316;-55
2024/01/14 01:00:34;;;;;;;14.70;7.30;;;;;;;-6.03;100.00;99427.84;104740;1255;59628;-56
2024/01/14 01:03:02;;;;;;;17.70;7.60;;;;;;;-6.06;100.00;99429.38;106004;1259;73043;-56
2024/01/14 01:05:29;;;;;;;15.60;8.30;;;;;;;-6.11;100.00;99427.91;104846;1261;65059;-56
2024/01/14 01:07:57;;;;;;;13.00;6.30;;;;;;;-6.15;100.00;99421.24;105160;1259;71001;-56
2024/01/14 01:10:24;;;;;;;12.00;6.30;;;;;;;-6.18;100.00;99414.38;104957;1254;59746;-56
2024/01/14 01:12:51;;;;;;;16.90;7.80;;;;;;;-6.20;100.00;99411.02;104811;1254;60093;-56
2024/01/14 01:15:19;;;;;;;16.10;8.20;;;;;;;-6.22;100.00;99405.26;104805;1255;72343;-56
2024/01/14 01:17:46;;;;;;;14.00;6.70;;;;;;;-6.22;100.00;99404.21;105180;1254;66724;-56
2024/01/14 01:20:13;;;;;;;16.00;7.30;;;;;;;-6.21;100.00;99403.86;105050;1264;70437;-56
2024/01/14 01:22:41;;;;;;;14.90;8.40;;;;;;;-6.19;100.00;99397.58;105014;1263;60079;-56
2024/01/14 01:25:10;;;;;;;18.70;8.80;;;;;;;-6.16;100.00;99392.93;104831;1254;60511;-56
2024/01/14 01:27:37;;;;;;;17.30;8.60;;;;;;;-6.13;100.00;99387.02;104952;1254;71899;-56
2024/01/14 01:30:06;;;;;;;18.80;9.00;;;;;;;-6.11;100.00;99388.77;104963;1258;65800;-56
2024/01/14 01:32:33;;;;;;;20.90;9.40;;;;;;;-6.09;100.00;99385.66;105796;1254;71134;-55
2024/01/14 01:35:01;;;;;;;18.50;9.30;;;;;;;-6.09;100.00;99381.64;104846;1257;59787;-56
2024/01/14 01:37:28;;;;;;;16.60;7.80;;;;;;;-6.08;100.00;99378.69;104724;1254;59603;-56
2024/01/14 01:39:56;;;;;;;15.20;7.70;;;;;;;-6.08;100.00;99375.54;105107;1255;71935;-55
2024/01/14 01:42:24;;;;;;;17.60;9.00;;;;;;;-6.08;100.00;99366.98;104864;1258;66698;-56
2024/01/14 01:44:51;;;;;;;17.90;9.50;;;;;;;-6.07;100.00;99369.80;105026;1256;71361;-55
2024/01/14 01:47:19;;;;;;;15.50;7.70;;;;;;;-6.05;100.00;99364.06;104823;1255;60497;-56
2024/01/14 01:49:46;;;;;;;16.30;8.40;;;;;;;-6.03;100.00;99357.96;104978;1254;60265;-56
2024/01/14 01:52:14;;;;;;;16.30;8.50;;;;;;;-5.99;100.00;99357.84;106133;1256;72059;-56
2024/01/14 01:54:41;;;;;;;19.00;9.70;;;;;;;-5.96;100.00;99353.86;104986;1254;65684;-55
2024/01/14 01:57:09;;;;;;;18.90;8.40;;;;;;;-5.92;100.00;99349.17;109094;1253;71460;-56
2024/01/14 01:59:38;;;;;;;21.90;9.80;;;;;;;-5.90;100.00;99344.33;108520;1254;61090;-55
2024/01/14 02:02:05;;;;;;;17.10;10.00;;;;;;;-5.87;100.00;99339.25;105307;1254;60501;-54
2024/01/14 02:04:33;;;;;;;14.70;8.70;;;;;;;-5.85;100.00;99335.05;104851;1261;72360;-56
2024/01/14 02:07:00;;;;;;;16.60;9.80;;;;;;;-5.82;100.00;99333.17;104908;1260;67283;-55
2024/01/14 02:09:28;;;;;;;16.00;7.90;;;;;;;-5.80;100.00;99328.66;104949;1260;70363;-55
2024/01/14 02:11:55;;;;;;;20.70;8.90;;;;;;;-5.78;100.00;99325.01;107410;1254;60424;-55
2024/01/14 02:14:23;;;;;;;15.00;8.90;;;;;;;-5.75;100.00;99324.86;104881;1254;60641;-55
2024/01/14 02:16:52;;;;;;;19.20;10.90;;;;;;;-5.72;100.00;99322.62;104917;1254;73801;-55
2024/01/14 02:19:19;;;;;;;22.80;11.50;;;;;;;-5.68;100.00;99319.33;104922;1254;67381;-56
2024/01/14 02:21:59;;;;;;;18.30;10.60;;;;;;;-5.64;100.00;99317.98;105458;1254;71472;-56
2024/01/14 02:24:28;;;;;;;20.70;9.50;;;;;;;-5.61;100.00;99311.19;105688;1267;61033;-55
2024/01/14 02:26:56;;;;;;;21.00;10.50;;;;;;;-5.59;100.00;99309.95;104733;1254;60457;-55
2024/01/14 02:29:24;;;;;;;25.30;12.80;;;;;;;-5.58;100.00;99307.70;105145;1254;74509;-54
2024/01/14 02:31:51;;;;;;;21.30;11.40;;;;;;;-5.58;100.00;99301.60;104810;1256;65684;-53
2024/01/14 02:34:18;;;;;;;22.90;10.60;;;;;;;-5.57;100.00;99292.69;105045;1258;72695;-55
2024/01/14 02:36:46;;;;;;;19.40;9.90;;;;;;;-5.55;100.00;99286.77;105553;1257;60494;-55
2024/01/14 02:39:16;;;;;;;21.20;9.40;;;;;;;-5.53;100.00;99281.00;105172;1254;60472;-55
2024/01/14 02:41:44;;;;;;;19.60;10.50;;;;;;;-5.49;100.00;99275.79;104875;1254;73913;-56
2024/01/14 02:44:12;;;;;;;18.60;10.60;;;;;;;-5.46;100.00;99270.06;105208;1254;67221;-55
2024/01/14 02:46:40;;;;;;;19.50;9.60;;;;;;;-5.42;100.00;99267.96;105041;1254;72741;-56
2024/01/14 02:49:07;;;;;;;22.60;12.30;;;;;;;-5.39;100.00;99262.59;105029;1254;60511;-55
2024/01/14 02:51:34;;;;;;;21.10;11.00;;;;;;;-5.38;100.00;99259.80;106339;1253;60740;-55
2024/01/14 02:54:02;;;;;;;24.80;11.70;;;;;;;-5.37;100.00;99259.80;104995;1257;73787;-54
2024/01/14 02:56:29;;;;;;;23.70;12.00;;;;;;;-5.37;100.00;99255.09;105388;1254;67314;-55
2024/01/14 02:58:57;;;;;;;19.60;10.50;;;;;;;-5.38;100.00;99248.95;104965;1260;72725;-56
2024/01/14 03:01:24;;;;;;;19.70;10.40;;;;;;;-5.38;100.00;99237.77;105027;1257;61785;-55
2024/01/14 03:03:51;;;;;;;20.20;10.70;;;;;;;-5.36;100.00;99236.19;105361;1257;60801;-54
2024/01/14 03:06:19;;;;;;;17.20;8.60;;;;;;;-5.34;100.00;99235.15;105035;1257;73379;-55
2024/01/14 03:08:47;;;;;;;19.20;10.40;;;;;;;-5.30;100.00;99230.11;105154;1254;65512;-54
2024/01/14 03:11:15;;;;;;;18.50;11.40;;;;;;;-5.28;100.00;99223.50;108344;1253;70682;-54
2024/01/14 03:13:43;;;;;;;17.70;10.70;;;;;;;-5.26;100.00;99216.67;105170;1254;60544;-53
2024/01/14 03:16:10;;;;;;;18.90;9.90;;;;;;;-5.25;100.00;99215.10;105010;1254;60550;-53
2024/01/14 03:18:38;;;;;;;18.60;10.20;;;;;;;-5.24;100.00;99210.91;104844;1258;73846;-54
2024/01/14 03:21:05;;;;;;;23.20;11.70;;;;;;;-5.23;100.00;99206.73;105340;1255;65697;-54
2024/01/14 03:23:33;;;;;;;20.60;10.00;;;;;;;-5.23;100.00;99196.05;104859;1253;72483;-53
2024/01/14 03:26:00;;;;;;;18.10;9.90;;;;;;;-5.22;100.00;99190.30;104927;1254;60846;-54
2024/01/14 03:28:27;;;;;;;16.60;9.30;;;;;;;-5.20;100.00;99186.29;104874;1259;61207;-54
2024/01/14 03:30:55;;;;;;;17.90;9.40;;;;;;;-5.17;100.00;99185.92;105042;1257;73035;-54
2024/01/14 03:33:23;;;;;;;17.10;10.50;;;;;;;-5.14;100.00;99180.89;105748;1257;66812;-54
2024/01/14 03:35:50;;;;;;;20.30;11.60;;;;;;;-5.10;100.00;99174.60;104904;1254;70447;-54
2024/01/14 03:38:17;;;;;;;16.70;10.10;;;;;;;-5.07;100.00;99173.04;105089;1254;60546;-53
2024/01/14 03:40:45;;;;;;;19.50;10.10;;;;;;;-5.05;100.00;99170.61;104906;1259;60553;-54
2024/01/14 03:43:13;;;;;;;19.10;9.50;;;;;;;-5.04;100.00;99177.45;105670;1253;73876;-54
2024/01/14 03:45:40;;;;;;;19.20;10.30;;;;;;;-5.03;100.00;99178.33;104912;1257;65489;-54
2024/01/14 03:48:08;;;;;;;15.70;8.50;;;;;;;-5.03;100.00;99178.85;104959;1258;74389;-54
2024/01/14 03:50:36;;;;;;;17.10;9.40;;;;;;;-5.02;100.00;99173.42;105404;1254;62094;-53
2024/01/14 03:53:03;;;;;;;16.40;8.90;;;;;;;-5.00;100.00;99175.34;105038;1260;60529;-54
2024/01/14 03:55:30;;;;;;;15.70;8.40;;;;;;;-4.98;100.00;99169.94;104928;1254;72644;-53
2024/01/14 03:57:59;;;;;;;15.80;9.70;;;;;;;-4.95;100.00;99166.65;105044;1257;65170;-54
2024/01/14 04:00:26;;;;;;;15.90;8.90;;;;;;;-4.91;100.00;99167.86;104673;1254;71397;-54
2024/01/14 04:02:53;;;;;;;17.00;8.80;;;;;;;-4.89;100.00;99167.70;104927;1254;60015;-54
2024/01/14 04:05:21;;;;;;;16.10;9.20;;;;;;;-4.87;100.00;99164.56;105063;1254;60543;-54
2024/01/14 04:07:51;;;;;;;17.20;9.20;;;;;;;-4.85;100.00;99165.61;105160;1259;71744;-54
2024/01/14 04:10:18;;;;;;;18.20;10.00;;;;;;;-4.83;100.00;99157.04;104967;1261;66884;-54
2024/01/14 04:12:46;;;;;;;13.70;8.70;;;;;;;-4.82;100.00;99153.36;104805;1257;71388;-54
2024/01/14 04:15:13;;;;;;;15.10;8.30;;;;;;;-4.79;100.00;99149.54;104918;1260;61146;-54
2024/01/14 04:17:41;;;;;;;13.70;7.70;;;;;;;-4.76;100.00;99148.30;104981;1258;60537;-54
2024/01/14 04:20:09;;;;;;;11.30;7.30;;;;;;;-4.73;100.00;99145.17;105634;1255;71666;-54
2024/01/14 04:22:37;;;;;;;15.00;9.10;;;;;;;-4.71;100.00;99146.07;104894;1259;66802;-55
2024/01/14 04:25:04;;;;;;;16.30;9.00;;;;;;;-4.68;100.00;99141.34;105134;1257;72691;-55
2024/01/14 04:27:31;;;;;;;14.80;7.90;;;;;;;-4.65;100.00;99138.02;106517;1253;60447;-54
2024/01/14 04:30:00;;;;;;;18.40;9.20;;;;;;;-4.64;100.00;99137.49;104800;1259;61090;-55
2024/01/14 04:32:27;;;;;;;13.50;7.80;;;;;;;-4.63;100.00;99131.55;106219;1254;72720;-55
2024/01/14 04:34:55;;;;;;;17.40;9.30;;;;;;;-4.61;100.00;99131.91;105133;1263;65901;-55
2024/01/14 04:37:23;;;;;;;12.10;7.10;;;;;;;-4.59;100.00;99129.98;105014;1257;72709;-55
2024/01/14 04:39:50;;;;;;;12.50;7.10;;;;;;;-4.57;100.00;99121.92;104970;1258;61955;-55
2024/01/14 04:42:17;;;;;;;15.90;8.70;;;;;;;-4.55;100.00;99120.35;105076;1254;60537;-54
2024/01/14 04:44:45;;;;;;;15.20;9.10;;;;;;;-4.52;100.00;99118.80;104884;1255;73932;-54
2024/01/14 04:47:12;;;;;;;15.30;8.80;;;;;;;-4.49;100.00;99117.20;105000;1255;65915;-55
2024/01/14 04:49:39;;;;;;;17.70;9.80;;;;;;;-4.48;100.00;99117.04;104992;1254;73128;-55
2024/01/14 04:52:07;;;;;;;12.30;8.10;;;;;;;-4.46;100.00;99119.68;104929;1263;60677;-55
2024/01/14 04:54:34;;;;;;;13.30;8.10;;;;;;;-4.43;100.00;99114.61;104932;1253;60623;-55
2024/01/14 04:57:02;;;;;;;13.30;7.40;;;;;;;-4.40;100.00;99109.86;104824;1253;72605;-55
2024/01/14 04:59:29;;;;;;;15.80;8.30;;;;;;;-4.37;100.00;99106.38;104826;1254;67335;-55
2024/01/14 05:01:56;;;;;;;15.10;8.50;;;;;;;-4.34;100.00;99104.27;104766;1256;71428;-55
2024/01/14 05:04:24;;;;;;;17.50;9.60;;;;;;;-4.30;100.00;99100.60;104986;1253;60521;-54
2024/01/14 05:06:51;;;;;;;19.30;10.20;;;;;;;-4.27;100.00;99100.95;104885;1257;60534;-55
2024/01/14 05:09:20;;;;;;;16.20;9.60;;;;;;;-4.24;100.00;99098.66;104965;1259;75793;-54
2024/01/14 05:11:48;;;;;;;12.80;8.50;;;;;;;-4.22;100.00;99093.60;109010;1254;65776;-56
2024/01/14 05:14:16;;;;;;;16.60;9.60;;;;;;;-4.19;100.00;99091.51;109012;1254;71355;-56
2024/01/14 05:16:43;;;;;;;14.50;8.40;;;;;;;-4.16;100.00;99086.05;108949;1253;61950;-53
2024/01/14 05:19:11;;;;;;;14.60;8.60;;;;;;;-4.12;100.00;99083.42;109073;1253;60153;-55
2024/01/14 05:21:38;;;;;;;14.80;8.80;;;;;;;-4.08;100.00;99080.10;109211;1252;73809;-53
2024/01/14 05:24:06;;;;;;;13.70;8.90;;;;;;;-4.05;100.00;99077.81;108032;1255;66300;-53
2024/01/14 05:26:38;;;;;;;13.10;9.00;;;;;;;-4.02;100.00;99075.02;104847;1256;70767;-53
2024/01/14 05:29:05;;;;;;;11.60;7.70;;;;;;;-3.99;100.00;99079.56;104864;1254;60467;-54
2024/01/14 05:31:33;;;;;;;15.20;8.50;;;;;;;-3.97;100.00;99074.48;104887;1254;60592;-54
2024/01/14 05:34:00;;;;;;;13.00;7.80;;;;;;;-3.93;100.00;99082.02;104827;1253;73913;-54
2024/01/14 05:36:27;;;;;;;16.30;10.00;;;;;;;-3.90;100.00;99079.55;104934;1257;65434;-52
2024/01/14 05:38:55;;;;;;;16.70;10.50;;;;;;;-3.86;100.00;99076.41;105486;1257;71503;-54
2024/01/14 05:41:23;;;;;;;15.00;8.00;;;;;;;-3.83;100.00;99076.04;104871;1259;60420;-54
2024/01/14 05:43:50;;;;;;;17.70;8.70;;;;;;;-3.80;100.00;99074.45;104948;1254;60400;-55
2024/01/14 05:46:18;;;;;;;9.90;6.80;;;;;;;-3.77;100.00;99071.13;105119;1254;72479;-54
2024/01/14 05:48:45;;;;;;;13.00;7.40;;;;;;;-3.73;100.00;99078.29;104858;1253;65677;-54
2024/01/14 05:51:13;;;;;;;12.10;7.30;;;;;;;-3.71;100.00;99079.52;104823;1254;71451;-55
2024/01/14 05:53:40;;;;;;;16.30;8.10;;;;;;;-3.68;100.00;99079.17;106229;1252;60546;-54
2024/01/14 05:56:09;;;;;;;10.00;5.90;;;;;;;-3.63;100.00;99083.52;105058;1253;60521;-54
2024/01/14 05:58:37;;;;;;;12.80;7.40;;;;;;;-3.59;100.00;99075.81;104977;1254;74282;-54
2024/01/14 06:01:04;;;;;;;13.70;8.60;;;;;;;-3.53;100.00;99077.55;104574;1258;67104;-54
2024/01/14 06:03:31;;;;;;;11.80;7.70;;;;;;;-3.51;100.00;99076.32;104777;1259;73283;-54
2024/01/14 06:05:59;;;;;;;11.30;8.00;;;;;;;-3.50;100.00;99077.54;105128;1257;60569;-54
2024/01/14 06:08:26;;;;;;;12.70;7.40;;;;;;;-3.48;100.00;99075.60;104996;1255;60353;-55
2024/01/14 06:10:53;;;;;;;11.60;7.50;;;;;;;-3.46;100.00;99079.80;104862;1254;71656;-52
2024/01/14 06:13:21;;;;;;;10.80;6.50;;;;;;;-3.45;100.00;99081.90;104889;1254;65841;-55
2024/01/14 06:15:48;;;;;;;10.70;7.30;;;;;;;-3.42;100.00;99081.39;104818;1254;72749;-55
2024/01/14 06:18:15;;;;;;;9.60;6.30;;;;;;;-3.38;100.00;99081.35;104897;1258;60968;-53
2024/01/14 06:20:43;;;;;;;11.30;7.70;;;;;;;-3.34;100.00;99080.66;104763;1259;60362;-52
2024/01/14 06:23:13;;;;;;;13.80;9.60;;;;;;;-3.29;100.00;99086.58;105153;1255;74067;-55
2024/01/14 06:25:40;;;;;;;12.60;7.80;;;;;;;-3.26;100.00;99083.77;104858;1259;67622;-55
2024/01/14 06:28:08;;;;;;;13.50;7.70;;;;;;;-3.23;100.00;99079.55;104888;1253;71721;-54
2024/01/14 06:30:35;;;;;;;12.50;7.50;;;;;;;-3.20;100.00;99076.73;104895;1258;60465;-54
2024/01/14 06:33:03;;;;;;;9.30;6.00;;;;;;;-3.17;100.00;99076.90;104917;1258;60458;-54
2024/01/14 06:35:31;;;;;;;11.00;6.20;;;;;;;-3.12;100.00;99075.46;105166;1253;72936;-54
2024/01/14 06:37:58;;;;;;;11.00;7.30;;;;;;;-3.08;100.00;99077.04;104829;1256;65541;-54
2024/01/14 06:40:25;;;;;;;9.30;6.10;;;;;;;-3.04;100.00;99069.45;104741;1258;72472;-55
2024/01/14 06:43:05;;;;;;;10.10;6.60;;;;;;;-2.98;100.00;99064.70;104643;1256;60631;-53
2024/01/14 06:45:33;;;;;;;11.40;6.70;;;;;;;-2.94;100.00;99060.98;104755;1259;60755;-53
2024/01/14 06:48:00;;;;;;;10.50;6.90;;;;;;;-2.90;100.00;99063.94;106166;1255;72685;-54
2024/01/14 06:50:27;;;;;;;9.50;6.60;;;;;;;-2.86;100.00;99062.69;104943;1258;65089;-56
2024/01/14 06:52:55;;;;;;;12.80;6.40;;;;;;;-2.83;100.00;99064.09;105038;1255;71517;-54
2024/01/14 06:55:22;;;;;;;8.90;6.10;;;;;;;-2.79;100.00;99061.95;104999;1254;60566;-55
2024/01/14 06:57:50;;;;;;;9.40;6.40;;;;;;;-2.76;100.00;99063.16;105010;1254;60661;-53
2024/01/14 07:00:17;;;;;;;10.50;6.20;;;;;;;-2.73;100.00;99063.32;104988;1256;73902;-54
2024/01/14 07:02:45;;;;;;;8.50;5.00;;;;;;;-2.68;100.00;99062.41;106076;1254;65605;-54
2024/01/14 07:05:13;;;;;;;10.30;6.50;;;;;;;-2.64;100.00;99059.40;105016;1253;72710;-55
2024/01/14 07:07:41;;;;;;;12.30;7.00;;;;;;;-2.59;100.00;99057.95;105133;1256;60445;-54
2024/01/14 07:10:09;;;;;;;13.30;8.20;;;;;;;-2.54;100.00;99054.06;105914;1254;60429;-54
2024/01/14 07:12:36;;;;;;;12.80;7.10;;;;;;;-2.50;100.00;99052.45;106444;1253;74306;-54
2024/01/14 07:15:04;;;;;;;12.00;7.00;;;;;;;-2.45;100.00;99057.51;105015;1253;65809;-55
2024/01/14 07:17:32;;;;;;;10.30;6.30;;;;;;;-2.41;100.00;99056.25;105781;1252;70816;-52
2024/01/14 07:20:19;;;;;;;7.90;5.80;;;;;;;-2.36;100.00;99057.27;104863;1253;60952;-54
2024/01/14 07:22:46;;;;;;;10.80;6.40;;;;;;;-2.32;100.00;99048.63;105287;1253;60633;-53
2024/01/14 07:25:14;;;;;;;11.40;5.50;;;;;;;-2.26;100.00;99044.89;104950;1253;72675;-55
2024/01/14 07:27:41;;;;;;;8.70;5.80;;;;;;;-2.21;100.00;99044.14;104961;1254;68955;-53
2024/01/14 07:30:09;;;;;;;12.10;7.20;;;;;;;-2.16;100.00;99042.70;105004;1252;71892;-54
2024/01/14 07:32:36;;;;;;;10.70;7.30;;;;;;;-2.11;100.00;99040.88;104992;1253;60493;-53
2024/01/14 07:35:05;;;;;;;10.90;7.00;;;;;;;-2.06;100.00;99041.73;105093;1257;60434;-55
2024/01/14 07:37:34;;;;;;;8.60;5.40;;;;;;;-2.03;100.00;99041.16;109250;1252;75961;-55
2024/01/14 07:40:01;;;;;;;9.90;5.90;;;;;;;-2.00;100.00;99037.27;109143;1253;67414;-54
2024/01/14 07:42:28;;;;;;;6.30;4.10;;;;;;;-1.94;100.00;99038.61;109052;1253;73200;-54
2024/01/14 07:44:56;;;;;;;7.30;5.00;;;;;;;-1.89;100.00;99038.05;109038;1253;59625;-54
2024/01/14 07:47:23;;;;;;;11.00;6.00;;;;;;;-1.84;100.00;99035.52;105069;1252;60359;-54
2024/01/14 07:49:51;;;;;;;12.90;7.30;;;;;;;-1.79;100.00;99039.88;104829;1253;74297;-54
2024/01/14 07:52:18;;;;;;;11.30;6.50;;;;;;;-1.74;100.00;99037.54;104791;1253;67428;-54
2024/01/14 07:54:46;;;;;;;9.20;6.00;;;;;;;-1.69;100.00;99040.83;105001;1257;72809;-54
2024/01/14 07:57:13;;;;;;;9.10;5.40;;;;;;;-1.67;100.00;99039.91;104909;1253;61086;-55
2024/01/14 07:59:40;;;;;;;9.20;5.50;;;;;;;-1.66;100.00;99036.92;109107;1252;58938;-54
2024/01/14 08:02:08;;;;;;;10.40;6.70;;;;;;;-1.66;100.00;99037.63;106857;1253;73923;-53
2024/01/14 08:04:35;;;;;;;7.50;5.40;;;;;;;-1.65;100.00;99035.85;109059;1253;69030;-54
2024/01/14 08:07:03;;;;;;;8.00;4.90;;;;;;;-1.63;100.00;99036.54;109113;1253;72693;-54
2024/01/14 08:09:30;;;;;;;12.90;5.80;;;;;;;-1.59;100.00;99035.42;109321;1252;59727;-55
2024/01/14 08:11:58;;;;;;;9.70;5.80;;;;;;;-1.54;100.00;99037.48;108151;1253;60051;-53
2024/01/14 08:14:25;;;;;;;9.50;6.40;;;;;;;-1.48;100.00;99043.41;109202;1253;72642;-54
2024/01/14 08:16:53;;;;;;;12.50;6.20;;;;;;;-1.44;100.00;99044.92;109204;1253;65159;-54
2024/01/14 08:19:20;;;;;;;11.80;6.10;;;;;;;-1.39;100.00;99043.48;109078;1253;73310;-55
2024/01/14 08:21:47;;;;;;;9.30;5.70;;;;;;;-1.34;100.00;99048.34;106268;1254;60549;-53
2024/01/14 08:24:15;;;;;;;9.10;5.10;;;;;;;-1.29;100.00;99045.83;105431;1253;60459;-54
2024/01/14 08:26:45;;;;;;;9.10;4.30;;;;;;;-1.24;100.00;99044.17;105481;1253;72664;-55
2024/01/14 08:29:13;;;;;;;10.40;4.60;;;;;;;-1.19;100.00;99043.41;105120;1254;67449;-54
2024/01/14 08:31:52;;;;;;;7.00;5.40;;;;;;;-1.12;100.00;99038.05;105029;1254;71059;-54
2024/01/14 08:34:19;;;;;;;12.30;5.60;;;;;;;-1.09;100.00;99042.92;104857;1254;60530;-53
2024/01/14 08:36:47;;;;;;;6.80;5.40;;;;;;;-1.04;100.00;99043.05;105161;1254;60466;-53
2024/01/14 08:39:15;;;;;;;6.80;4.50;;;;;;;-1.01;100.00;99038.41;105148;1253;73173;-53
2024/01/14 08:41:42;;;;;;;10.00;5.10;;;;;;;-0.98;100.00;99036.80;104966;1254;65406;-53
2024/01/14 08:44:10;;;;;;;7.40;4.80;;;;;;;-0.96;100.00;99028.32;105136;1254;73301;-54
2024/01/14 08:46:39;;;;;;;7.30;3.50;;;;;;;-0.93;100.00;99033.02;105323;1252;60549;-53
2024/01/14 08:49:07;;;;;;;6.90;3.80;;;;;;;-0.88;100.00;99029.27;105349;1254;60382;-53
2024/01/14 08:51:35;;;;;;;5.80;3.90;;;;;;;-0.84;100.00;99024.27;108983;1253;73922;-54
2024/01/14 08:54:03;;;;;;;7.80;4.40;;;;;;;-0.77;100.00;99025.74;105701;1254;66734;-53
2024/01/14 08:56:30;;;;;;;6.20;4.50;;;;;;;-0.70;100.00;99022.84;105198;1256;70731;-52
2024/01/14 08:58:58;;;;;;;9.00;4.80;;;;;;;-0.62;100.00;99014.80;104918;1256;60405;-54
2024/01/14 09:01:26;;;;;;;6.10;4.40;;;;;;;-0.57;100.00;99008.89;105011;1252;60659;-56
2024/01/14 09:03:54;;;;;;;8.00;3.70;;;;;;;-0.54;100.00;99008.67;105011;1251;74040;-54
2024/01/14 09:06:22;;;;;;;9.00;4.70;;;;;;;-0.51;100.00;99009.87;105121;1254;65699;-54
2024/01/14 09:08:49;;;;;;;4.50;2.90;;;;;;;-0.50;100.00;99011.59;104740;1251;73402;-54
2024/01/14 09:11:17;;;;;;;4.70;3.00;;;;;;;-0.49;100.00;99005.41;105611;1254;61869;-53
2024/01/14 09:13:48;;;;;;;7.20;3.50;;;;;;;-0.48;100.00;99007.52;105244;1253;60368;-52
2024/01/14 09:16:16;;;;;;;4.30;3.40;;;;;;;-0.48;100.00;99003.29;105019;1251;72687;-53
2024/01/14 09:18:43;;;;;;;6.00;3.70;;;;;;;-0.46;100.00;99000.80;105201;1253;66037;-53
2024/01/14 09:21:11;;;;;;;5.10;3.00;;;;;;;-0.45;100.00;99000.78;106177;1253;71491;-53
2024/01/14 09:23:39;;;;;;;5.90;3.00;;;;;;;-0.46;100.00;98999.73;105022;1251;60870;-53
2024/01/14 09:26:06;;;;;;;7.50;3.80;;;;;;;-0.47;100.00;98997.28;105070;1251;60560;-54
2024/01/14 09:28:34;;;;;;;7.50;2.70;;;;;;;-0.49;100.00;98988.48;105136;1257;72057;-54
2024/01/14 09:31:02;;;;;;;2.90;1.80;;;;;;;-0.51;100.00;98987.11;105104;1257;67417;-55
2024/01/14 09:33:30;;;;;;;4.90;2.10;;;;;;;-0.53;100.00;98986.10;106168;1251;73146;-56
2024/01/14 09:36:06;;;;;;;3.90;2.30;;;;;;;-0.54;100.00;98982.58;104912;1254;60563;-55
2024/01/14 09:38:33;;;;;;;4.30;2.60;;;;;;;-0.54;100.00;98980.83;105089;1251;60494;-54
2024/01/14 09:41:13;;;;;;;3.50;2.10;;;;;;;-0.53;100.00;98982.05;105269;1251;74088;-54
2024/01/14 09:43:41;;;;;;;3.50;2.10;;;;;;;-0.52;100.00;98982.92;104976;1252;65642;-54
2024/01/14 09:46:08;;;;;;;2.80;2.10;;;;;;;-0.54;100.00;98978.00;104990;1254;71225;-55
2024/01/14 09:48:36;;;;;;;2.60;1.30;;;;;;;-0.56;100.00;98976.98;104766;1256;60557;-55
2024/01/14 09:51:04;;;;;;;3.90;2.20;;;;;;;-0.58;100.00;98974.88;104927;1257;60519;-54
2024/01/14 09:53:31;;;;;;;4.70;2.10;;;;;;;-0.57;100.00;98971.52;104827;1257;75864;-54
2024/01/14 09:56:00;;;;;;;4.90;2.20;;;;;;;-0.56;100.00;98968.70;105422;1257;69131;-54
2024/01/14 09:58:28;;;;;;;3.40;1.60;;;;;;;-0.55;100.00;98962.52;104717;1253;72404;-55
2024/01/14 10:00:55;;;;;;;3.40;2.30;;;;;;;-0.54;100.00;98965.14;104801;1253;60300;-55
2024/01/14 10:03:23;;;;;;;3.70;2.20;;;;;;;-0.53;100.00;98963.02;104908;1257;63292;-55
2024/01/14 10:05:50;;;;;;;3.80;2.10;;;;;;;-0.52;100.00;98959.31;104864;1253;72625;-54
2024/01/14 10:08:18;;;;;;;3.30;1.90;;;;;;;-0.53;100.00;98956.14;105393;1253;66782;-54
2024/01/14 10:10:54;;;;;;;2.40;1.70;;;;;;;-0.51;100.00;98956.29;104969;1253;73089;-55
2024/01/14 10:13:25;;;;;;;8.50;1.80;;;;;;;-0.50;100.00;98958.36;104966;1253;61111;-55
2024/01/14 10:15:52;;;;;;;2.70;1.90;;;;;;;-0.49;100.00;98952.52;104755;1257;144628;-55
2024/01/14 10:20:39;;;;;;;2.30;1.30;;;;;;;-0.43;100.00;99005.33;101498;1294;600410;-55
2024/01/14 10:23:08;;;;;;;4.30;1.80;;;;;;;-0.43;100.00;99002.16;104474;1263;59334;-55
2024/01/14 10:25:35;;;;;;;6.00;1.90;;;;;;;-0.41;100.00;98994.70;104619;1264;59280;-54
2024/01/14 10:28:05;;;;;;;7.30;2.90;;;;;;;-0.39;100.00;98986.39;104419;1263;71046;-57
2024/01/14 10:30:34;;;;;;;3.40;2.10;;;;;;;-0.35;100.00;98977.36;104610;1262;66899;-55
2024/01/14 10:33:03;;;;;;;6.40;2.70;;;;;;;-0.35;100.00;98969.59;108744;1257;72504;-56
2024/01/14 10:35:49;;;;;;;4.60;2.30;;;;;;;-0.33;100.00;98968.67;108818;1259;60916;-54
2024/01/14 10:38:19;;;;;;;4.90;2.80;;;;;;;-0.30;100.00;98959.80;108777;1259;58810;-55
2024/01/14 10:40:46;;;;;;;6.30;3.00;;;;;;;-0.28;100.00;98958.89;108833;1254;71630;-55
2024/01/14 10:43:14;;;;;;;4.20;2.30;;;;;;;-0.26;100.00;98956.39;105422;1260;67523;-53
2024/01/14 10:45:42;;;;;;;6.80;2.40;;;;;;;-0.23;100.00;98955.96;104905;1260;72760;-56
2024/01/14 10:48:10;;;;;;;5.30;2.40;;;;;;;-0.23;100.00;98952.09;105355;1254;59883;-54
2024/01/14 10:50:38;;;;;;;6.00;3.60;;;;;;;-0.25;100.00;98949.48;106063;1261;61379;-55
2024/01/14 10:53:23;;;;;;;6.00;2.80;;;;;;;-0.28;100.00;98942.84;105885;1260;74026;-55
2024/01/14 10:56:05;;;;;;;6.30;2.70;;;;;;;-0.29;100.00;98940.58;107755;1256;65656;-54
2024/01/14 10:58:36;;;;;;;4.80;2.80;;;;;;;-0.30;100.00;98937.75;104723;1267;72769;-54
2024/01/14 11:01:08;;;;;;;4.50;3.40;;;;;;;-0.31;100.00;98928.95;108859;1259;60304;-55
2024/01/14 11:03:36;;;;;;;3.80;2.50;;;;;;;-0.32;100.00;98925.80;108904;1254;61899;-55
2024/01/14 11:06:03;;;;;;;5.90;2.50;;;;;;;-0.33;100.00;98924.05;108873;1254;73138;-55
2024/01/14 11:08:31;;;;;;;7.60;4.10;;;;;;;-0.35;100.00;98920.40;108953;1256;66770;-55
2024/01/14 11:10:59;;;;;;;6.20;2.60;;;;;;;-0.38;100.00;98916.92;108880;1254;74985;-54
2024/01/14 11:13:37;;;;;;;4.70;2.90;;;;;;;-0.40;100.00;98915.72;104740;1259;60546;-54
2024/01/14 11:16:12;;;;;;;4.30;3.20;;;;;;;-0.40;100.00;98911.66;108547;1254;59339;-52
2024/01/14 11:18:43;;;;;;;7.00;4.00;;;;;;;-0.40;100.00;98907.62;104751;1263;75883;-54